createdAt,value
2022-12-17T00:01:52.478Z,23.97
2022-12-17T00:04:37.411Z,25.03
2022-12-17T00:07:23.784Z,32.47
2022-12-17T00:10:14.297Z,27.03
2022-12-17T00:13:00.009Z,28.47
2022-12-17T00:15:46.902Z,27.17
2022-12-17T00:18:32.292Z,29.43
2022-12-17T00:21:19.279Z,24.63
2022-12-17T00:24:05.754Z,26.27
2022-12-17T00:26:52.158Z,27.83
2022-12-17T00:29:38.070Z,25.30
2022-12-17T00:32:25.037Z,29.80
2022-12-17T00:35:10.588Z,26.80
2022-12-17T00:37:56.124Z,25.63
2022-12-17T00:40:42.283Z,23.10
2022-12-17T00:43:38.560Z,26.03
2022-12-17T00:46:24.561Z,23.87
2022-12-17T00:49:11.762Z,27.40
2022-12-17T00:51:57.356Z,23.87
2022-12-17T00:54:43.109Z,23.40
2022-12-17T00:57:28.721Z,24.80
2022-12-17T01:00:14.391Z,20.73
2022-12-17T01:03:00.447Z,26.80
2022-12-17T01:05:47.457Z,27.60
2022-12-17T01:08:34.253Z,25.97
2022-12-17T01:11:20.756Z,35.60
2022-12-17T01:14:06.427Z,20.20
2022-12-17T01:16:52.025Z,21.57
2022-12-17T01:19:38.631Z,28.47
2022-12-17T01:22:26.263Z,19.07
2022-12-17T01:25:11.772Z,28.37
2022-12-17T01:27:57.857Z,29.50
2022-12-17T01:30:39.803Z,23.23
2022-12-17T01:33:27.138Z,25.50
2022-12-17T01:36:14.179Z,26.60
2022-12-17T01:39:01.516Z,23.47
2022-12-17T01:41:46.910Z,26.53
2022-12-17T01:45:03.772Z,23.60
2022-12-17T01:47:52.696Z,25.73
2022-12-17T01:50:44.976Z,21.07
2022-12-17T01:53:31.063Z,26.87
2022-12-17T01:56:14.426Z,21.17
2022-12-17T01:59:01.104Z,21.27
2022-12-17T02:01:47.275Z,33.23
2022-12-17T02:04:34.120Z,21.83
2022-12-17T02:07:33.874Z,28.10
2022-12-17T02:10:31.966Z,23.77
2022-12-17T02:13:26.636Z,23.97
2022-12-17T02:16:17.151Z,21.03
2022-12-17T02:19:07.295Z,21.63
2022-12-17T02:21:54.370Z,20.83
2022-12-17T02:24:49.566Z,23.80
2022-12-17T02:27:37.390Z,21.83
2022-12-17T02:30:25.482Z,25.63
2022-12-17T02:33:12.765Z,24.60
2022-12-17T02:36:03.284Z,29.13
2022-12-17T02:38:50.522Z,21.93
2022-12-17T02:41:40.840Z,21.27
2022-12-17T02:44:29.877Z,24.20
2022-12-17T02:47:16.432Z,27.20
2022-12-17T02:50:02.613Z,26.27
2022-12-17T02:52:50.167Z,21.97
2022-12-17T02:55:36.126Z,21.60
2022-12-17T02:58:21.980Z,28.50
2022-12-17T03:01:09.207Z,26.63
2022-12-17T03:03:55.482Z,32.67
2022-12-17T03:06:41.184Z,24.30
2022-12-17T03:09:26.948Z,27.87
2022-12-17T03:12:12.406Z,26.53
2022-12-17T03:14:58.346Z,25.27
2022-12-17T03:17:44.898Z,27.77
2022-12-17T03:20:30.836Z,20.23
2022-12-17T03:23:21.617Z,24.63
2022-12-17T03:26:07.427Z,23.27
2022-12-17T03:28:53.159Z,28.40
2022-12-17T03:31:39.759Z,23.03
2022-12-17T03:34:27.139Z,23.83
2022-12-17T03:37:12.970Z,29.57
2022-12-17T03:39:58.543Z,25.77
2022-12-17T03:42:44.342Z,28.00
2022-12-17T03:45:30.380Z,30.93
2022-12-17T03:48:24.285Z,24.90
2022-12-17T03:51:12.143Z,31.00
2022-12-17T03:53:58.690Z,26.17
2022-12-17T03:56:44.146Z,27.77
2022-12-17T03:59:30.086Z,23.40
2022-12-17T04:02:15.831Z,23.60
2022-12-17T04:05:01.588Z,23.67
2022-12-17T04:08:03.203Z,21.33
2022-12-17T04:10:48.816Z,22.57
2022-12-17T04:13:40.236Z,28.40
2022-12-17T04:16:26.516Z,22.40
2022-12-17T04:19:11.851Z,29.13
2022-12-17T04:21:57.384Z,23.53
2022-12-17T04:24:44.219Z,21.60
2022-12-17T04:27:29.524Z,21.50
2022-12-17T04:30:15.266Z,25.33
2022-12-17T04:33:00.934Z,23.07
2022-12-17T04:35:51.858Z,25.13
2022-12-17T04:38:37.752Z,31.03
2022-12-17T04:41:36.582Z,26.10
2022-12-17T04:44:22.370Z,24.90
2022-12-17T04:47:07.671Z,27.50
2022-12-17T04:49:53.174Z,25.80
2022-12-17T04:52:39.029Z,24.77
2022-12-17T04:55:25.458Z,25.33
2022-12-17T04:58:12.459Z,24.60
2022-12-17T05:00:58.188Z,24.23
2022-12-17T05:03:43.725Z,21.83
2022-12-17T05:06:29.788Z,21.10
2022-12-17T05:09:15.460Z,23.07
2022-12-17T05:12:01.124Z,21.00
2022-12-17T05:14:48.225Z,23.80
2022-12-17T05:17:34.189Z,28.43
2022-12-17T05:20:19.600Z,25.30
2022-12-17T05:23:05.553Z,30.60
2022-12-17T05:25:53.429Z,26.80
2022-12-17T05:28:39.153Z,28.10
2022-12-17T05:31:25.992Z,22.63
2022-12-17T05:34:11.282Z,31.17
2022-12-17T05:36:56.865Z,28.37
2022-12-17T05:39:42.907Z,31.50
2022-12-17T05:42:28.288Z,21.43
2022-12-17T05:45:14.124Z,27.70
2022-12-17T05:48:01.087Z,23.23
2022-12-17T05:50:46.974Z,29.20
2022-12-17T05:53:32.665Z,22.27
2022-12-17T05:56:17.945Z,27.23
2022-12-17T05:59:03.738Z,26.03
2022-12-17T06:01:49.974Z,21.67
2022-12-17T06:04:33.421Z,24.50
2022-12-17T06:07:19.239Z,28.10
2022-12-17T06:10:04.857Z,31.93
2022-12-17T06:12:50.616Z,30.07
2022-12-17T06:15:36.186Z,33.03
2022-12-17T06:18:21.958Z,23.53
2022-12-17T06:21:11.292Z,33.53
2022-12-17T06:23:57.090Z,29.03
2022-12-17T06:26:57.227Z,23.50
2022-12-17T06:29:42.979Z,27.27
2022-12-17T06:32:28.434Z,31.80
2022-12-17T06:35:14.335Z,28.50
2022-12-17T06:38:01.456Z,35.07
2022-12-17T06:40:47.264Z,24.13
2022-12-17T06:43:32.915Z,27.80
2022-12-17T06:46:18.783Z,25.57
2022-12-17T06:49:04.831Z,26.93
2022-12-17T06:51:50.286Z,37.77
2022-12-17T06:54:37.277Z,35.50
2022-12-17T06:57:22.992Z,24.63
2022-12-17T07:00:09.039Z,32.87
2022-12-17T07:02:54.866Z,35.03
2022-12-17T07:05:41.014Z,29.00
2022-12-17T07:08:26.649Z,33.43
2022-12-17T07:11:13.807Z,28.57
2022-12-17T07:13:59.175Z,28.27
2022-12-17T07:16:44.810Z,35.70
2022-12-17T07:19:30.352Z,33.27
2022-12-17T07:22:16.268Z,31.70
2022-12-17T07:25:02.006Z,47.77
2022-12-17T07:27:49.511Z,38.70
2022-12-17T07:30:34.965Z,35.57
2022-12-17T07:33:23.018Z,28.20
2022-12-17T07:36:10.906Z,32.20
2022-12-17T07:38:56.423Z,30.73
2022-12-17T07:41:42.244Z,27.73
2022-12-17T07:44:28.771Z,31.07
2022-12-17T07:47:14.293Z,29.90
2022-12-17T07:49:59.737Z,35.50
2022-12-17T07:52:45.425Z,30.60
2022-12-17T07:55:30.858Z,23.13
2022-12-17T07:58:18.415Z,29.97
2022-12-17T08:01:05.713Z,39.10
2022-12-17T08:03:51.297Z,37.80
2022-12-17T08:06:37.239Z,30.67
2022-12-17T08:09:23.448Z,40.80
2022-12-17T08:12:09.417Z,32.43
2022-12-17T08:14:55.374Z,34.93
2022-12-17T08:17:42.322Z,40.63
2022-12-17T08:20:29.162Z,33.70
2022-12-17T08:23:20.428Z,35.63
2022-12-17T08:26:06.096Z,37.47
2022-12-17T08:28:52.145Z,31.93
2022-12-17T08:31:38.369Z,36.07
2022-12-17T08:34:25.627Z,36.67
2022-12-17T08:37:11.904Z,24.57
2022-12-17T08:39:57.364Z,27.60
2022-12-17T08:42:42.989Z,29.03
2022-12-17T08:45:28.953Z,31.23
2022-12-17T08:48:21.629Z,27.23
2022-12-17T08:51:08.469Z,26.70
2022-12-17T08:53:54.361Z,32.90
2022-12-17T08:56:40.254Z,28.60
2022-12-17T08:59:26.032Z,27.30
2022-12-17T09:02:26.199Z,33.50
2022-12-17T09:05:12.437Z,29.20
2022-12-17T09:07:59.493Z,30.13
2022-12-17T09:10:45.097Z,29.73
2022-12-17T09:13:30.892Z,26.63
2022-12-17T09:16:16.160Z,36.77
2022-12-17T09:19:02.911Z,27.63
2022-12-17T09:21:50.390Z,33.57
2022-12-17T09:24:45.507Z,35.43
2022-12-17T09:27:31.130Z,34.17
2022-12-17T09:30:16.929Z,30.73
2022-12-17T09:33:02.401Z,31.63
2022-12-17T09:35:47.842Z,30.87
2022-12-17T09:38:33.740Z,25.87
2022-12-17T09:41:41.001Z,31.83
2022-12-17T09:44:35.075Z,33.40
2022-12-17T09:47:29.889Z,33.40
2022-12-17T09:50:15.528Z,30.90
2022-12-17T09:53:08.127Z,27.97
2022-12-17T09:56:08.528Z,30.90
2022-12-17T09:58:58.413Z,31.73
2022-12-17T10:01:57.480Z,29.60
2022-12-17T10:04:52.230Z,27.50
2022-12-17T10:07:41.987Z,30.00
2022-12-17T10:10:37.074Z,27.33
2022-12-17T10:13:29.279Z,36.30
2022-12-17T10:16:16.705Z,30.07
2022-12-17T10:19:03.557Z,37.30
2022-12-17T10:21:50.057Z,45.70
2022-12-17T10:24:35.599Z,45.30
2022-12-17T10:27:28.477Z,53.23
2022-12-17T10:30:14.188Z,50.47
2022-12-17T10:33:01.085Z,49.70
2022-12-17T10:35:54.310Z,39.67
2022-12-17T10:38:42.124Z,37.00
2022-12-17T10:41:39.398Z,42.07
2022-12-17T10:44:35.696Z,36.77
2022-12-17T10:47:21.221Z,37.93
2022-12-17T10:50:17.644Z,43.40
2022-12-17T10:53:03.407Z,42.23
2022-12-17T10:55:50.847Z,32.30
2022-12-17T10:58:55.193Z,36.13
2022-12-17T11:01:43.017Z,88.40
2022-12-17T11:04:43.911Z,80.77
2022-12-17T11:07:36.249Z,52.80
2022-12-17T11:10:23.824Z,40.47
2022-12-17T11:13:13.278Z,28.10
2022-12-17T11:16:02.443Z,23.27
2022-12-17T11:18:56.057Z,27.33
2022-12-17T11:21:47.105Z,23.27
2022-12-17T11:24:40.876Z,22.00
2022-12-17T11:27:30.257Z,25.07
2022-12-17T11:30:15.822Z,19.20
2022-12-17T11:33:22.518Z,23.40
2022-12-17T11:36:14.638Z,26.83
2022-12-17T11:39:08.521Z,23.97
2022-12-17T11:42:11.035Z,29.93
2022-12-17T11:45:09.560Z,36.00
2022-12-17T11:48:02.568Z,27.53
2022-12-17T11:50:54.641Z,25.83
2022-12-17T11:53:57.954Z,28.00
2022-12-17T11:56:48.700Z,27.37
2022-12-17T11:59:50.910Z,23.70
2022-12-17T12:02:53.258Z,22.07
2022-12-17T12:05:54.921Z,21.07
2022-12-17T12:08:46.369Z,20.40
2022-12-17T12:11:42.569Z,24.67
2022-12-17T12:14:41.428Z,22.90
2022-12-17T12:17:41.721Z,23.60
2022-12-17T12:20:40.183Z,23.42
2022-12-17T12:23:37.421Z,23.60
2022-12-17T12:26:32.540Z,19.87
2022-12-17T12:29:24.722Z,25.17
2022-12-17T12:32:18.439Z,19.08
2022-12-17T12:35:06.809Z,18.25
2022-12-17T12:37:54.239Z,19.30
2022-12-17T12:40:46.553Z,22.60
2022-12-17T12:43:40.226Z,19.83
2022-12-17T12:46:36.776Z,18.67
2022-12-17T12:49:32.877Z,20.17
2022-12-17T12:52:19.663Z,24.75
2022-12-17T12:55:12.125Z,18.63
2022-12-17T12:58:00.708Z,23.88
2022-12-17T13:00:52.589Z,17.93
2022-12-17T13:03:47.309Z,21.10
2022-12-17T13:06:41.548Z,22.53
2022-12-17T13:09:22.583Z,17.13
2022-12-17T13:11:54.724Z,20.30
2022-12-17T13:14:25.519Z,15.02
2022-12-17T13:16:56.772Z,22.15
2022-12-17T13:19:37.434Z,22.45
2022-12-17T13:22:28.323Z,22.45
2022-12-17T13:24:58.456Z,22.88
2022-12-17T13:27:31.283Z,24.52
2022-12-17T13:30:00.721Z,25.52
2022-12-17T13:32:33.366Z,24.00
2022-12-17T13:35:13.719Z,26.70
2022-12-17T13:37:54.254Z,18.25
2022-12-17T13:40:35.757Z,20.77
2022-12-17T13:43:04.112Z,21.80
2022-12-17T13:45:36.172Z,20.85
2022-12-17T13:48:04.509Z,20.58
2022-12-17T13:50:34.239Z,20.73
2022-12-17T13:53:13.234Z,19.45
2022-12-17T13:55:41.877Z,21.88
2022-12-17T13:58:23.789Z,19.75
2022-12-17T14:00:52.171Z,22.07
2022-12-17T14:03:42.902Z,20.50
2022-12-17T14:06:13.332Z,23.43
2022-12-17T14:08:43.515Z,20.83
2022-12-17T14:11:31.125Z,20.65
2022-12-17T14:14:00.042Z,25.40
2022-12-17T14:16:28.285Z,18.95
2022-12-17T14:18:57.991Z,21.27
2022-12-17T14:21:27.513Z,20.90
2022-12-17T14:23:58.013Z,18.00
2022-12-17T14:26:26.191Z,17.05
2022-12-17T14:28:56.728Z,18.92
2022-12-17T14:31:28.866Z,15.70
2022-12-17T14:34:07.760Z,19.88
2022-12-17T14:36:38.405Z,16.77
2022-12-17T14:39:19.226Z,19.55
2022-12-17T14:42:04.801Z,21.33
2022-12-17T14:44:33.374Z,19.27
2022-12-17T14:47:18.575Z,17.73
2022-12-17T14:49:55.831Z,21.70
2022-12-17T14:52:45.306Z,19.88
2022-12-17T14:55:30.782Z,20.88
2022-12-17T14:58:15.954Z,16.47
2022-12-17T15:00:47.036Z,19.05
2022-12-17T15:03:23.545Z,17.70
2022-12-17T15:05:54.836Z,15.23
2022-12-17T15:08:23.339Z,15.00
2022-12-17T15:10:52.924Z,18.65
2022-12-17T15:13:20.957Z,15.68
2022-12-17T15:15:48.933Z,16.80
2022-12-17T15:18:16.969Z,16.50
2022-12-17T15:20:45.353Z,18.53
2022-12-17T15:23:18.134Z,17.80
2022-12-17T15:25:47.288Z,20.33
2022-12-17T15:28:18.072Z,20.90
2022-12-17T15:30:46.445Z,15.97
2022-12-17T15:33:15.314Z,14.67
2022-12-17T15:35:44.085Z,13.93
2022-12-17T15:38:13.875Z,14.43
2022-12-17T15:40:42.141Z,12.80
2022-12-17T15:43:13.950Z,15.13
2022-12-17T15:45:45.120Z,14.30
2022-12-17T15:48:15.311Z,17.83
2022-12-17T15:50:43.435Z,22.07
2022-12-17T15:53:11.834Z,16.60
2022-12-17T15:55:40.343Z,17.67
2022-12-17T15:58:11.679Z,19.57
2022-12-17T16:00:40.368Z,26.47
2022-12-17T16:03:09.869Z,21.83
2022-12-17T16:05:38.221Z,20.53
2022-12-17T16:08:06.461Z,16.30
2022-12-17T16:10:34.553Z,26.43
2022-12-17T16:13:02.709Z,19.90
2022-12-17T16:15:31.268Z,20.57
2022-12-17T16:17:59.486Z,23.17
2022-12-17T16:20:29.130Z,19.47
2022-12-17T16:22:57.124Z,19.47
2022-12-17T16:25:25.113Z,28.53
2022-12-17T16:27:53.515Z,21.83
2022-12-17T16:30:23.723Z,34.10
2022-12-17T16:32:51.817Z,22.37
2022-12-17T16:35:20.246Z,18.70
2022-12-17T16:37:49.604Z,21.60
2022-12-17T16:40:17.705Z,21.70
2022-12-17T16:42:45.839Z,24.17
2022-12-17T16:45:14.156Z,15.77
2022-12-17T16:47:42.537Z,19.80
2022-12-17T16:50:10.553Z,16.37
2022-12-17T16:52:39.009Z,15.30
2022-12-17T16:55:09.428Z,18.70
2022-12-17T16:57:37.458Z,23.93
2022-12-17T17:00:06.266Z,17.43
2022-12-17T17:02:34.484Z,15.60
2022-12-17T17:05:02.719Z,21.03
2022-12-17T17:07:30.806Z,18.10
2022-12-17T17:09:59.224Z,13.63
2022-12-17T17:12:29.318Z,19.47
2022-12-17T17:14:57.700Z,20.73
2022-12-17T17:17:54.550Z,18.07
2022-12-17T17:20:14.215Z,18.40
2022-12-17T17:22:42.344Z,18.37
2022-12-17T17:25:10.521Z,20.20
2022-12-17T17:27:40.053Z,16.83
2022-12-17T17:30:09.244Z,18.40
2022-12-17T17:32:37.342Z,19.23
2022-12-17T17:35:06.231Z,17.27
2022-12-17T17:37:34.304Z,14.67
2022-12-17T17:40:02.340Z,17.83
2022-12-17T17:42:30.448Z,18.60
2022-12-17T17:44:59.886Z,13.70
2022-12-17T17:47:30.116Z,13.37
2022-12-17T17:49:58.664Z,13.67
2022-12-17T17:52:26.747Z,16.00
2022-12-17T17:54:55.264Z,20.43
2022-12-17T17:57:23.543Z,16.57
2022-12-17T17:59:51.631Z,17.73
2022-12-17T18:02:21.493Z,15.80
2022-12-17T18:04:49.557Z,19.00
2022-12-17T18:07:26.421Z,18.17
2022-12-17T18:09:55.367Z,21.90
2022-12-17T18:12:41.391Z,19.17
2022-12-17T18:15:15.418Z,22.17
2022-12-17T18:17:46.053Z,23.27
2022-12-17T18:20:14.739Z,18.87
2022-12-17T18:22:43.342Z,19.00
2022-12-17T18:25:11.516Z,19.07
2022-12-17T18:27:39.675Z,24.13
2022-12-17T18:30:08.645Z,33.83
2022-12-17T18:32:36.826Z,22.80
2022-12-17T18:35:07.081Z,24.40
2022-12-17T18:37:35.857Z,16.60
2022-12-17T18:40:03.934Z,30.60
2022-12-17T18:42:49.196Z,23.53
2022-12-17T18:45:17.285Z,28.13
2022-12-17T18:47:45.279Z,24.70
2022-12-17T18:50:14.749Z,25.13
2022-12-17T18:52:42.900Z,39.47
2022-12-17T18:55:10.999Z,32.73
2022-12-17T18:57:39.058Z,36.67
2022-12-17T19:00:08.705Z,34.47
2022-12-17T19:02:36.928Z,35.10
2022-12-17T19:05:05.613Z,30.33
2022-12-17T19:07:35.262Z,35.90
2022-12-17T19:10:03.424Z,39.50
2022-12-17T19:12:31.524Z,37.53
2022-12-17T19:14:59.587Z,39.10
2022-12-17T19:17:27.693Z,38.53
2022-12-17T19:19:55.859Z,43.83
2022-12-17T19:22:23.990Z,42.33
2022-12-17T19:24:53.857Z,43.20
2022-12-17T19:27:22.011Z,36.57
2022-12-17T19:29:50.212Z,31.70
2022-12-17T19:32:18.499Z,37.80
2022-12-17T19:34:46.556Z,39.90
2022-12-17T19:37:15.075Z,38.10
2022-12-17T19:39:43.075Z,37.70
2022-12-17T19:42:25.845Z,32.43
2022-12-17T19:44:55.029Z,32.20
2022-12-17T19:47:23.716Z,29.07
2022-12-17T19:49:52.034Z,33.50
2022-12-17T19:52:20.429Z,34.13
2022-12-17T19:54:48.430Z,30.70
2022-12-17T19:57:17.853Z,23.43
2022-12-17T19:59:46.066Z,34.80
2022-12-17T20:02:15.813Z,31.67
2022-12-17T20:04:43.998Z,38.87
2022-12-17T20:07:12.116Z,36.27
2022-12-17T20:09:44.143Z,35.80
2022-12-17T20:12:12.348Z,33.70
2022-12-17T20:14:41.796Z,35.00
2022-12-17T20:17:10.347Z,37.23
2022-12-17T20:19:38.740Z,49.97
2022-12-17T20:22:07.611Z,42.83
2022-12-17T20:24:37.485Z,44.33
2022-12-17T20:27:07.283Z,46.33
2022-12-17T20:29:35.836Z,46.00
2022-12-17T20:32:05.603Z,41.83
2022-12-17T20:34:33.709Z,43.27
2022-12-17T20:37:01.779Z,44.43
2022-12-17T20:39:30.035Z,39.90
2022-12-17T20:41:58.291Z,40.87
2022-12-17T20:44:26.680Z,39.30
2022-12-17T20:46:54.891Z,39.43
2022-12-17T20:49:24.273Z,43.60
2022-12-17T20:51:52.375Z,38.93
2022-12-17T20:54:21.994Z,39.70
2022-12-17T20:56:50.100Z,35.43
2022-12-17T20:59:19.278Z,38.67
2022-12-17T21:01:54.221Z,31.27
2022-12-17T21:04:25.990Z,38.67
2022-12-17T21:06:54.710Z,40.83
2022-12-17T21:09:25.456Z,39.37
2022-12-17T21:11:53.870Z,30.80
2022-12-17T21:14:21.912Z,34.97
2022-12-17T21:16:50.153Z,30.57
2022-12-17T21:19:20.991Z,44.27
2022-12-17T21:21:50.632Z,42.63
2022-12-17T21:24:20.202Z,38.40
2022-12-17T21:26:48.580Z,34.23
2022-12-17T21:29:18.389Z,34.70
2022-12-17T21:31:47.854Z,37.57
2022-12-17T21:34:18.298Z,34.47
2022-12-17T21:36:46.363Z,30.03
2022-12-17T21:39:16.757Z,34.53
2022-12-17T21:42:13.559Z,37.23
2022-12-17T21:44:41.836Z,39.97
2022-12-17T21:47:10.029Z,33.83
2022-12-17T21:49:38.317Z,35.20
2022-12-17T21:52:07.518Z,32.53
2022-12-17T21:54:39.053Z,27.57
2022-12-17T21:57:07.372Z,32.37
2022-12-17T21:59:35.397Z,34.17
2022-12-17T22:02:03.733Z,33.47
2022-12-17T22:04:32.311Z,35.23
2022-12-17T22:07:08.558Z,33.13
2022-12-17T22:10:25.468Z,29.53
2022-12-17T22:12:45.021Z,35.80
2022-12-17T22:15:13.263Z,37.07
2022-12-17T22:17:42.478Z,33.60
2022-12-17T22:20:11.580Z,32.30
2022-12-17T22:22:39.650Z,39.10
2022-12-17T22:25:11.211Z,39.10
2022-12-17T22:27:40.800Z,44.67
2022-12-17T22:30:30.993Z,44.73
2022-12-17T22:33:02.725Z,40.17
2022-12-17T22:37:10.797Z,33.83
2022-12-17T22:39:51.478Z,30.70
2022-12-17T22:44:35.212Z,36.70
2022-12-17T22:44:38.824Z,32.27
2022-12-17T22:47:10.945Z,30.13
2022-12-17T22:49:41.396Z,35.90
2022-12-17T22:52:12.226Z,40.03
2022-12-17T22:54:40.508Z,41.43
2022-12-17T22:57:34.533Z,43.73
2022-12-17T22:59:58.539Z,35.80
2022-12-17T23:02:26.692Z,36.20
2022-12-17T23:04:54.762Z,33.60
2022-12-17T23:07:25.693Z,42.30
2022-12-17T23:09:58.984Z,30.97
2022-12-17T23:12:46.030Z,32.47
2022-12-17T23:15:14.211Z,25.70
2022-12-17T23:17:42.280Z,34.20
2022-12-17T23:20:11.706Z,32.43
2022-12-17T23:22:39.972Z,20.40
2022-12-17T23:25:08.951Z,26.40
2022-12-17T23:27:38.824Z,29.77
2022-12-17T23:30:09.132Z,41.27
2022-12-17T23:32:37.488Z,29.37
2022-12-17T23:35:06.083Z,39.93
2022-12-17T23:37:39.574Z,42.60
2022-12-17T23:40:10.120Z,32.10
2022-12-17T23:42:40.114Z,25.70
2022-12-17T23:45:11.823Z,29.33
2022-12-17T23:47:41.116Z,21.37
2022-12-17T23:50:11.348Z,26.47
2022-12-17T23:52:39.979Z,30.20
2022-12-17T23:55:08.771Z,23.90
2022-12-17T23:57:36.933Z,24.90
